sensor_id;sensor_type;location;lat;lon;timestamp;temperature;humidity
41256;DHT22;26989;45.524;10.938;2023-05-17T00:00:57;13.00;99.90
41256;DHT22;26989;45.524;10.938;2023-05-17T00:03:24;13.00;99.90
41256;DHT22;26989;45.524;10.938;2023-05-17T00:05:51;13.10;99.90
41256;DHT22;26989;45.524;10.938;2023-05-17T00:08:18;13.20;99.90
41256;DHT22;26989;45.524;10.938;2023-05-17T00:10:45;13.20;99.90
41256;DHT22;26989;45.524;10.938;2023-05-17T00:13:12;13.30;99.90
41256;DHT22;26989;45.524;10.938;2023-05-17T00:15:39;13.20;99.90
41256;DHT22;26989;45.524;10.938;2023-05-17T00:18:06;13.30;99.90
41256;DHT22;26989;45.524;10.938;2023-05-17T00:20:33;13.20;99.90
41256;DHT22;26989;45.524;10.938;2023-05-17T00:23:01;13.20;99.90
41256;DHT22;26989;45.524;10.938;2023-05-17T00:25:28;13.10;99.90
41256;DHT22;26989;45.524;10.938;2023-05-17T00:27:56;13.10;99.90
41256;DHT22;26989;45.524;10.938;2023-05-17T00:30:23;13.10;99.90
41256;DHT22;26989;45.524;10.938;2023-05-17T00:32:50;13.10;99.90
41256;DHT22;26989;45.524;10.938;2023-05-17T00:35:17;13.10;99.90
41256;DHT22;26989;45.524;10.938;2023-05-17T00:37:44;13.10;99.90
41256;DHT22;26989;45.524;10.938;2023-05-17T00:40:30;13.00;99.90
41256;DHT22;26989;45.524;10.938;2023-05-17T00:42:57;12.90;99.90
41256;DHT22;26989;45.524;10.938;2023-05-17T00:45:24;12.80;99.90
41256;DHT22;26989;45.524;10.938;2023-05-17T00:47:51;12.80;99.90
41256;DHT22;26989;45.524;10.938;2023-05-17T00:50:18;12.80;99.90
41256;DHT22;26989;45.524;10.938;2023-05-17T00:52:45;12.70;99.90
41256;DHT22;26989;45.524;10.938;2023-05-17T00:55:12;12.70;99.90
41256;DHT22;26989;45.524;10.938;2023-05-17T00:57:39;12.50;99.90
41256;DHT22;26989;45.524;10.938;2023-05-17T01:00:07;12.50;99.90
41256;DHT22;26989;45.524;10.938;2023-05-17T01:02:34;12.50;99.90
41256;DHT22;26989;45.524;10.938;2023-05-17T01:05:01;12.40;99.90
41256;DHT22;26989;45.524;10.938;2023-05-17T01:07:28;12.50;99.90
41256;DHT22;26989;45.524;10.938;2023-05-17T01:09:55;12.50;99.90
41256;DHT22;26989;45.524;10.938;2023-05-17T01:20:59;12.40;99.90
41256;DHT22;26989;45.524;10.938;2023-05-17T01:28:57;12.40;99.90
41256;DHT22;26989;45.524;10.938;2023-05-17T01:31:25;12.20;99.90
41256;DHT22;26989;45.524;10.938;2023-05-17T01:33:53;12.20;99.90
41256;DHT22;26989;45.524;10.938;2023-05-17T01:36:20;12.20;99.90
41256;DHT22;26989;45.524;10.938;2023-05-17T01:38:47;12.20;99.90
41256;DHT22;26989;45.524;10.938;2023-05-17T01:41:50;12.20;99.90
41256;DHT22;26989;45.524;10.938;2023-05-17T01:47:59;12.10;99.90
41256;DHT22;26989;45.524;10.938;2023-05-17T01:50:32;12.10;99.90
41256;DHT22;26989;45.524;10.938;2023-05-17T01:53:38;12.20;99.90
41256;DHT22;26989;45.524;10.938;2023-05-17T01:56:09;12.10;99.90
41256;DHT22;26989;45.524;10.938;2023-05-17T01:58:47;12.10;99.90
41256;DHT22;26989;45.524;10.938;2023-05-17T02:01:15;12.20;99.90
41256;DHT22;26989;45.524;10.938;2023-05-17T02:03:42;12.10;99.90
41256;DHT22;26989;45.524;10.938;2023-05-17T02:06:09;12.10;99.90
41256;DHT22;26989;45.524;10.938;2023-05-17T02:08:37;12.10;99.90
41256;DHT22;26989;45.524;10.938;2023-05-17T02:11:04;12.10;99.90
41256;DHT22;26989;45.524;10.938;2023-05-17T02:13:31;12.00;99.90
41256;DHT22;26989;45.524;10.938;2023-05-17T02:16:01;12.10;99.90
41256;DHT22;26989;45.524;10.938;2023-05-17T02:18:29;12.10;99.90
41256;DHT22;26989;45.524;10.938;2023-05-17T02:20:58;12.10;99.90
41256;DHT22;26989;45.524;10.938;2023-05-17T02:23:25;12.10;99.90
41256;DHT22;26989;45.524;10.938;2023-05-17T02:25:52;12.10;99.90
41256;DHT22;26989;45.524;10.938;2023-05-17T02:28:19;12.10;99.90
41256;DHT22;26989;45.524;10.938;2023-05-17T02:30:46;12.10;99.90
41256;DHT22;26989;45.524;10.938;2023-05-17T02:33:13;12.20;99.90
41256;DHT22;26989;45.524;10.938;2023-05-17T02:35:40;12.00;99.90
41256;DHT22;26989;45.524;10.938;2023-05-17T02:38:07;12.10;99.90
41256;DHT22;26989;45.524;10.938;2023-05-17T02:40:34;12.10;99.90
41256;DHT22;26989;45.524;10.938;2023-05-17T02:43:00;12.10;99.90
41256;DHT22;26989;45.524;10.938;2023-05-17T02:45:27;12.10;99.90
41256;DHT22;26989;45.524;10.938;2023-05-17T02:47:55;12.00;99.90
41256;DHT22;26989;45.524;10.938;2023-05-17T02:50:21;12.10;99.90
41256;DHT22;26989;45.524;10.938;2023-05-17T02:52:48;12.10;99.90
41256;DHT22;26989;45.524;10.938;2023-05-17T02:55:15;12.10;99.90
41256;DHT22;26989;45.524;10.938;2023-05-17T02:57:42;12.20;99.90
41256;DHT22;26989;45.524;10.938;2023-05-17T03:00:09;12.20;99.90
41256;DHT22;26989;45.524;10.938;2023-05-17T03:02:36;12.30;99.90
41256;DHT22;26989;45.524;10.938;2023-05-17T03:05:04;12.30;99.90
41256;DHT22;26989;45.524;10.938;2023-05-17T03:07:31;12.30;99.90
41256;DHT22;26989;45.524;10.938;2023-05-17T03:09:57;12.30;99.90
41256;DHT22;26989;45.524;10.938;2023-05-17T03:12:24;12.30;99.90
41256;DHT22;26989;45.524;10.938;2023-05-17T03:14:54;12.30;99.90
41256;DHT22;26989;45.524;10.938;2023-05-17T03:17:21;12.20;99.90
41256;DHT22;26989;45.524;10.938;2023-05-17T03:19:48;12.30;99.90
41256;DHT22;26989;45.524;10.938;2023-05-17T03:22:15;12.30;99.90
41256;DHT22;26989;45.524;10.938;2023-05-17T03:24:42;12.40;99.90
41256;DHT22;26989;45.524;10.938;2023-05-17T03:27:09;12.40;99.90
41256;DHT22;26989;45.524;10.938;2023-05-17T03:29:36;12.40;99.90
41256;DHT22;26989;45.524;10.938;2023-05-17T03:32:03;12.40;99.90
41256;DHT22;26989;45.524;10.938;2023-05-17T03:34:30;12.40;99.90
41256;DHT22;26989;45.524;10.938;2023-05-17T03:36:57;12.40;99.90
41256;DHT22;26989;45.524;10.938;2023-05-17T03:39:24;12.50;99.90
41256;DHT22;26989;45.524;10.938;2023-05-17T03:41:50;12.50;99.90
41256;DHT22;26989;45.524;10.938;2023-05-17T03:44:17;12.50;99.90
41256;DHT22;26989;45.524;10.938;2023-05-17T03:46:44;12.50;99.90
41256;DHT22;26989;45.524;10.938;2023-05-17T03:49:11;12.50;99.90
41256;DHT22;26989;45.524;10.938;2023-05-17T03:51:38;12.50;99.90
41256;DHT22;26989;45.524;10.938;2023-05-17T03:54:05;12.50;99.90
41256;DHT22;26989;45.524;10.938;2023-05-17T03:56:32;12.50;99.90
41256;DHT22;26989;45.524;10.938;2023-05-17T03:58:59;12.60;99.90
41256;DHT22;26989;45.524;10.938;2023-05-17T04:01:26;12.60;99.90
41256;DHT22;26989;45.524;10.938;2023-05-17T04:03:53;12.60;99.90
41256;DHT22;26989;45.524;10.938;2023-05-17T04:06:20;12.60;99.90
41256;DHT22;26989;45.524;10.938;2023-05-17T04:08:47;12.60;99.90
41256;DHT22;26989;45.524;10.938;2023-05-17T04:11:14;12.60;99.90
41256;DHT22;26989;45.524;10.938;2023-05-17T04:13:41;12.60;99.90
41256;DHT22;26989;45.524;10.938;2023-05-17T04:16:08;12.60;99.90
41256;DHT22;26989;45.524;10.938;2023-05-17T04:18:37;12.60;99.90
41256;DHT22;26989;45.524;10.938;2023-05-17T04:21:04;12.70;99.90
41256;DHT22;26989;45.524;10.938;2023-05-17T04:23:32;12.70;99.90
41256;DHT22;26989;45.524;10.938;2023-05-17T04:25:59;12.70;99.90
41256;DHT22;26989;45.524;10.938;2023-05-17T04:28:26;12.60;99.90
41256;DHT22;26989;45.524;10.938;2023-05-17T04:30:54;12.70;99.90
41256;DHT22;26989;45.524;10.938;2023-05-17T04:33:22;12.70;99.90
41256;DHT22;26989;45.524;10.938;2023-05-17T04:35:53;12.70;99.90
41256;DHT22;26989;45.524;10.938;2023-05-17T04:38:20;12.80;99.90
41256;DHT22;26989;45.524;10.938;2023-05-17T04:40:47;12.90;99.90
41256;DHT22;26989;45.524;10.938;2023-05-17T04:43:14;12.90;99.90
41256;DHT22;26989;45.524;10.938;2023-05-17T04:45:42;12.90;99.90
41256;DHT22;26989;45.524;10.938;2023-05-17T04:48:09;12.90;99.90
41256;DHT22;26989;45.524;10.938;2023-05-17T04:50:36;12.90;99.90
41256;DHT22;26989;45.524;10.938;2023-05-17T04:53:03;12.90;99.90
41256;DHT22;26989;45.524;10.938;2023-05-17T04:55:30;12.90;99.90
41256;DHT22;26989;45.524;10.938;2023-05-17T04:57:57;12.90;99.90
41256;DHT22;26989;45.524;10.938;2023-05-17T05:00:24;12.90;99.90
41256;DHT22;26989;45.524;10.938;2023-05-17T05:02:51;12.80;99.90
41256;DHT22;26989;45.524;10.938;2023-05-17T05:05:18;12.70;99.90
41256;DHT22;26989;45.524;10.938;2023-05-17T05:07:46;12.60;99.90
41256;DHT22;26989;45.524;10.938;2023-05-17T05:10:13;12.60;99.90
41256;DHT22;26989;45.524;10.938;2023-05-17T05:12:39;12.60;99.90
41256;DHT22;26989;45.524;10.938;2023-05-17T05:15:07;12.50;99.90
41256;DHT22;26989;45.524;10.938;2023-05-17T05:17:34;12.50;99.90
41256;DHT22;26989;45.524;10.938;2023-05-17T05:20:01;12.60;99.90
41256;DHT22;26989;45.524;10.938;2023-05-17T05:22:28;12.60;99.90
41256;DHT22;26989;45.524;10.938;2023-05-17T05:24:55;12.70;99.90
41256;DHT22;26989;45.524;10.938;2023-05-17T05:27:22;12.70;99.90
41256;DHT22;26989;45.524;10.938;2023-05-17T05:29:49;12.80;99.90
41256;DHT22;26989;45.524;10.938;2023-05-17T05:32:16;12.90;99.90
41256;DHT22;26989;45.524;10.938;2023-05-17T05:34:43;12.90;99.90
41256;DHT22;26989;45.524;10.938;2023-05-17T05:37:10;12.90;99.90
41256;DHT22;26989;45.524;10.938;2023-05-17T05:39:37;12.90;99.90
41256;DHT22;26989;45.524;10.938;2023-05-17T05:42:04;13.00;99.90
41256;DHT22;26989;45.524;10.938;2023-05-17T05:44:31;13.10;99.90
41256;DHT22;26989;45.524;10.938;2023-05-17T05:46:58;13.10;99.90
41256;DHT22;26989;45.524;10.938;2023-05-17T05:49:25;13.20;99.90
41256;DHT22;26989;45.524;10.938;2023-05-17T05:51:52;13.20;99.90
41256;DHT22;26989;45.524;10.938;2023-05-17T05:54:19;13.20;99.90
41256;DHT22;26989;45.524;10.938;2023-05-17T05:56:45;13.20;99.90
41256;DHT22;26989;45.524;10.938;2023-05-17T05:59:12;13.40;99.90
41256;DHT22;26989;45.524;10.938;2023-05-17T06:01:39;13.30;99.90
41256;DHT22;26989;45.524;10.938;2023-05-17T06:04:07;13.40;99.90
41256;DHT22;26989;45.524;10.938;2023-05-17T06:06:34;13.30;99.90
41256;DHT22;26989;45.524;10.938;2023-05-17T06:09:01;13.40;99.90
41256;DHT22;26989;45.524;10.938;2023-05-17T06:11:29;13.30;99.90
41256;DHT22;26989;45.524;10.938;2023-05-17T06:13:56;13.30;99.90
41256;DHT22;26989;45.524;10.938;2023-05-17T06:16:23;13.20;99.90
41256;DHT22;26989;45.524;10.938;2023-05-17T06:18:54;13.30;99.90
41256;DHT22;26989;45.524;10.938;2023-05-17T06:21:21;13.30;99.90
41256;DHT22;26989;45.524;10.938;2023-05-17T06:23:48;13.40;99.90
41256;DHT22;26989;45.524;10.938;2023-05-17T06:26:15;13.50;99.90
41256;DHT22;26989;45.524;10.938;2023-05-17T06:28:42;13.50;99.90
41256;DHT22;26989;45.524;10.938;2023-05-17T06:31:09;13.50;99.90
41256;DHT22;26989;45.524;10.938;2023-05-17T06:33:36;13.50;99.90
41256;DHT22;26989;45.524;10.938;2023-05-17T06:36:04;13.60;99.90
41256;DHT22;26989;45.524;10.938;2023-05-17T06:38:31;13.70;99.90
41256;DHT22;26989;45.524;10.938;2023-05-17T06:40:58;13.80;99.90
41256;DHT22;26989;45.524;10.938;2023-05-17T06:43:24;14.00;99.90
41256;DHT22;26989;45.524;10.938;2023-05-17T06:45:54;14.00;99.90
41256;DHT22;26989;45.524;10.938;2023-05-17T06:48:21;14.00;99.90
41256;DHT22;26989;45.524;10.938;2023-05-17T06:50:48;14.50;99.90
41256;DHT22;26989;45.524;10.938;2023-05-17T06:53:15;14.50;99.90
41256;DHT22;26989;45.524;10.938;2023-05-17T06:55:42;14.50;99.90
41256;DHT22;26989;45.524;10.938;2023-05-17T06:58:09;14.60;99.90
41256;DHT22;26989;45.524;10.938;2023-05-17T07:00:36;14.80;99.90
41256;DHT22;26989;45.524;10.938;2023-05-17T07:03:03;14.90;99.90
41256;DHT22;26989;45.524;10.938;2023-05-17T07:05:30;15.00;99.90
41256;DHT22;26989;45.524;10.938;2023-05-17T07:07:58;15.10;99.90
41256;DHT22;26989;45.524;10.938;2023-05-17T07:10:25;15.20;99.90
41256;DHT22;26989;45.524;10.938;2023-05-17T07:12:52;15.50;99.90
41256;DHT22;26989;45.524;10.938;2023-05-17T07:15:19;15.20;99.90
41256;DHT22;26989;45.524;10.938;2023-05-17T07:17:46;15.60;99.90
41256;DHT22;26989;45.524;10.938;2023-05-17T07:20:13;15.60;99.90
41256;DHT22;26989;45.524;10.938;2023-05-17T07:22:41;15.40;99.90
41256;DHT22;26989;45.524;10.938;2023-05-17T07:25:08;15.20;99.90
41256;DHT22;26989;45.524;10.938;2023-05-17T07:27:35;15.60;99.90
41256;DHT22;26989;45.524;10.938;2023-05-17T07:30:02;15.50;99.90
41256;DHT22;26989;45.524;10.938;2023-05-17T07:32:30;15.30;99.90
41256;DHT22;26989;45.524;10.938;2023-05-17T07:34:57;15.50;99.90
41256;DHT22;26989;45.524;10.938;2023-05-17T07:37:23;15.90;99.90
41256;DHT22;26989;45.524;10.938;2023-05-17T07:39:50;15.80;99.90
41256;DHT22;26989;45.524;10.938;2023-05-17T07:42:17;16.10;99.90
41256;DHT22;26989;45.524;10.938;2023-05-17T07:44:44;16.30;99.90
41256;DHT22;26989;45.524;10.938;2023-05-17T07:47:14;15.80;99.90
41256;DHT22;26989;45.524;10.938;2023-05-17T07:49:41;15.90;99.90
41256;DHT22;26989;45.524;10.938;2023-05-17T07:52:08;15.80;99.90
41256;DHT22;26989;45.524;10.938;2023-05-17T07:54:35;16.00;99.90
41256;DHT22;26989;45.524;10.938;2023-05-17T07:57:02;16.50;99.90
41256;DHT22;26989;45.524;10.938;2023-05-17T07:59:29;16.20;99.90
41256;DHT22;26989;45.524;10.938;2023-05-17T08:01:56;16.90;99.90
41256;DHT22;26989;45.524;10.938;2023-05-17T08:04:23;17.20;99.90
41256;DHT22;26989;45.524;10.938;2023-05-17T08:06:50;17.80;99.90
41256;DHT22;26989;45.524;10.938;2023-05-17T08:09:17;18.30;99.90
41256;DHT22;26989;45.524;10.938;2023-05-17T08:11:45;18.80;99.90
41256;DHT22;26989;45.524;10.938;2023-05-17T08:14:14;19.10;99.90
41256;DHT22;26989;45.524;10.938;2023-05-17T08:16:42;19.30;99.90
41256;DHT22;26989;45.524;10.938;2023-05-17T08:19:11;19.50;99.90
41256;DHT22;26989;45.524;10.938;2023-05-17T08:21:42;19.20;99.90
41256;DHT22;26989;45.524;10.938;2023-05-17T08:24:10;19.80;99.90
41256;DHT22;26989;45.524;10.938;2023-05-17T08:26:37;20.50;99.90
41256;DHT22;26989;45.524;10.938;2023-05-17T08:29:04;20.80;99.90
41256;DHT22;26989;45.524;10.938;2023-05-17T08:31:31;21.30;99.90
41256;DHT22;26989;45.524;10.938;2023-05-17T08:33:58;20.80;99.90
41256;DHT22;26989;45.524;10.938;2023-05-17T08:36:28;21.10;99.90
41256;DHT22;26989;45.524;10.938;2023-05-17T08:38:54;21.20;99.90
41256;DHT22;26989;45.524;10.938;2023-05-17T08:41:21;21.40;99.90
41256;DHT22;26989;45.524;10.938;2023-05-17T08:43:48;21.40;99.90
41256;DHT22;26989;45.524;10.938;2023-05-17T08:46:18;21.80;99.90
41256;DHT22;26989;45.524;10.938;2023-05-17T08:48:49;21.50;99.90
41256;DHT22;26989;45.524;10.938;2023-05-17T08:51:19;21.20;99.90
41256;DHT22;26989;45.524;10.938;2023-05-17T08:53:47;21.50;99.90
41256;DHT22;26989;45.524;10.938;2023-05-17T08:56:16;21.10;99.90
41256;DHT22;26989;45.524;10.938;2023-05-17T08:58:47;21.20;99.90
41256;DHT22;26989;45.524;10.938;2023-05-17T09:01:23;21.40;99.90
41256;DHT22;26989;45.524;10.938;2023-05-17T09:03:53;21.30;99.90
41256;DHT22;26989;45.524;10.938;2023-05-17T09:06:21;21.10;99.90
41256;DHT22;26989;45.524;10.938;2023-05-17T09:08:52;20.80;99.90
41256;DHT22;26989;45.524;10.938;2023-05-17T09:11:28;20.90;99.90
41256;DHT22;26989;45.524;10.938;2023-05-17T09:14:01;21.00;99.90
41256;DHT22;26989;45.524;10.938;2023-05-17T09:16:32;21.30;99.90
41256;DHT22;26989;45.524;10.938;2023-05-17T09:19:01;21.30;99.90
41256;DHT22;26989;45.524;10.938;2023-05-17T09:21:30;21.40;99.90
41256;DHT22;26989;45.524;10.938;2023-05-17T09:23:58;21.50;99.90
41256;DHT22;26989;45.524;10.938;2023-05-17T09:26:42;21.60;99.90
41256;DHT22;26989;45.524;10.938;2023-05-17T09:29:14;21.50;99.90
41256;DHT22;26989;45.524;10.938;2023-05-17T09:31:42;21.30;99.90
41256;DHT22;26989;45.524;10.938;2023-05-17T09:34:09;21.20;99.90
41256;DHT22;26989;45.524;10.938;2023-05-17T09:36:38;21.20;99.90
41256;DHT22;26989;45.524;10.938;2023-05-17T09:39:08;20.70;99.90
41256;DHT22;26989;45.524;10.938;2023-05-17T09:41:45;20.60;99.90
41256;DHT22;26989;45.524;10.938;2023-05-17T09:44:16;20.50;99.90
41256;DHT22;26989;45.524;10.938;2023-05-17T09:46:45;20.60;99.90
41256;DHT22;26989;45.524;10.938;2023-05-17T09:49:13;20.60;99.90
41256;DHT22;26989;45.524;10.938;2023-05-17T09:51:47;20.80;99.90
41256;DHT22;26989;45.524;10.938;2023-05-17T09:54:14;20.70;99.90
41256;DHT22;26989;45.524;10.938;2023-05-17T09:56:43;21.00;99.90
41256;DHT22;26989;45.524;10.938;2023-05-17T09:59:12;21.40;99.90
41256;DHT22;26989;45.524;10.938;2023-05-17T10:01:41;21.50;99.90
41256;DHT22;26989;45.524;10.938;2023-05-17T10:04:09;21.70;99.90
41256;DHT22;26989;45.524;10.938;2023-05-17T10:06:38;22.00;99.90
41256;DHT22;26989;45.524;10.938;2023-05-17T10:09:16;22.10;99.90
41256;DHT22;26989;45.524;10.938;2023-05-17T10:11:45;22.20;99.90
41256;DHT22;26989;45.524;10.938;2023-05-17T10:14:26;22.70;99.90
41256;DHT22;26989;45.524;10.938;2023-05-17T10:16:54;22.80;99.90
41256;DHT22;26989;45.524;10.938;2023-05-17T10:19:24;23.40;99.70
41256;DHT22;26989;45.524;10.938;2023-05-17T10:21:52;23.70;99.20
41256;DHT22;26989;45.524;10.938;2023-05-17T10:24:19;23.40;99.00
41256;DHT22;26989;45.524;10.938;2023-05-17T10:26:50;23.30;97.60
41256;DHT22;26989;45.524;10.938;2023-05-17T10:29:18;23.20;98.70
41256;DHT22;26989;45.524;10.938;2023-05-17T10:31:48;23.20;98.40
41256;DHT22;26989;45.524;10.938;2023-05-17T10:34:18;23.60;98.00
41256;DHT22;26989;45.524;10.938;2023-05-17T10:36:47;23.70;97.60
41256;DHT22;26989;45.524;10.938;2023-05-17T10:39:14;23.40;97.20
41256;DHT22;26989;45.524;10.938;2023-05-17T10:41:44;23.10;97.50
41256;DHT22;26989;45.524;10.938;2023-05-17T10:44:14;23.10;97.50
41256;DHT22;26989;45.524;10.938;2023-05-17T10:46:51;22.40;97.50
41256;DHT22;26989;45.524;10.938;2023-05-17T10:49:19;22.20;98.60
41256;DHT22;26989;45.524;10.938;2023-05-17T10:51:50;22.70;98.20
41256;DHT22;26989;45.524;10.938;2023-05-17T10:54:17;22.90;98.50
41256;DHT22;26989;45.524;10.938;2023-05-17T10:56:50;23.20;97.70
41256;DHT22;26989;45.524;10.938;2023-05-17T10:59:24;23.30;97.10
41256;DHT22;26989;45.524;10.938;2023-05-17T11:02:06;22.90;97.30
41256;DHT22;26989;45.524;10.938;2023-05-17T11:04:38;22.60;97.40
41256;DHT22;26989;45.524;10.938;2023-05-17T11:09:39;23.40;96.90
41256;DHT22;26989;45.524;10.938;2023-05-17T11:12:08;23.60;97.40
41256;DHT22;26989;45.524;10.938;2023-05-17T11:14:56;23.70;96.30
41256;DHT22;26989;45.524;10.938;2023-05-17T11:17:25;23.90;97.50
41256;DHT22;26989;45.524;10.938;2023-05-17T11:22:24;23.90;97.10
41256;DHT22;26989;45.524;10.938;2023-05-17T11:24:55;23.70;97.10
41256;DHT22;26989;45.524;10.938;2023-05-17T11:27:22;23.80;96.20
41256;DHT22;26989;45.524;10.938;2023-05-17T11:29:56;23.70;95.90
41256;DHT22;26989;45.524;10.938;2023-05-17T11:32:30;24.10;97.10
41256;DHT22;26989;45.524;10.938;2023-05-17T11:35:01;24.30;96.00
41256;DHT22;26989;45.524;10.938;2023-05-17T11:37:29;24.20;95.50
41256;DHT22;26989;45.524;10.938;2023-05-17T11:40:07;24.00;95.40
41256;DHT22;26989;45.524;10.938;2023-05-17T11:42:36;23.50;96.00
41256;DHT22;26989;45.524;10.938;2023-05-17T11:45:05;23.70;95.70
41256;DHT22;26989;45.524;10.938;2023-05-17T11:47:32;23.70;95.10
41256;DHT22;26989;45.524;10.938;2023-05-17T11:50:00;23.30;95.50
41256;DHT22;26989;45.524;10.938;2023-05-17T11:52:29;23.60;95.80
41256;DHT22;26989;45.524;10.938;2023-05-17T11:54:57;23.80;94.90
41256;DHT22;26989;45.524;10.938;2023-05-17T11:57:31;24.10;94.90
41256;DHT22;26989;45.524;10.938;2023-05-17T12:00:00;24.10;94.50
41256;DHT22;26989;45.524;10.938;2023-05-17T12:02:29;23.70;93.90
41256;DHT22;26989;45.524;10.938;2023-05-17T12:04:57;24.00;94.50
41256;DHT22;26989;45.524;10.938;2023-05-17T12:07:24;24.10;94.20
41256;DHT22;26989;45.524;10.938;2023-05-17T12:09:52;23.80;93.70
41256;DHT22;26989;45.524;10.938;2023-05-17T12:12:19;23.50;94.50
41256;DHT22;26989;45.524;10.938;2023-05-17T12:14:49;23.50;94.50
41256;DHT22;26989;45.524;10.938;2023-05-17T12:17:26;23.30;93.80
41256;DHT22;26989;45.524;10.938;2023-05-17T12:20:08;23.40;94.10
41256;DHT22;26989;45.524;10.938;2023-05-17T12:22:56;23.30;94.00
41256;DHT22;26989;45.524;10.938;2023-05-17T12:25:23;23.30;90.90
41256;DHT22;26989;45.524;10.938;2023-05-17T12:28:14;23.20;89.80
41256;DHT22;26989;45.524;10.938;2023-05-17T12:30:41;23.10;89.20
41256;DHT22;26989;45.524;10.938;2023-05-17T12:33:08;23.30;88.40
41256;DHT22;26989;45.524;10.938;2023-05-17T12:35:36;22.90;89.50
41256;DHT22;26989;45.524;10.938;2023-05-17T12:38:03;22.70;88.40
41256;DHT22;26989;45.524;10.938;2023-05-17T12:40:30;22.70;89.70
41256;DHT22;26989;45.524;10.938;2023-05-17T12:43:01;22.70;90.10
41256;DHT22;26989;45.524;10.938;2023-05-17T12:45:29;22.30;89.40
41256;DHT22;26989;45.524;10.938;2023-05-17T12:47:56;22.60;89.80
41256;DHT22;26989;45.524;10.938;2023-05-17T12:50:30;22.30;89.20
41256;DHT22;26989;45.524;10.938;2023-05-17T12:52:58;22.10;89.10
41256;DHT22;26989;45.524;10.938;2023-05-17T12:55:25;22.10;89.40
41256;DHT22;26989;45.524;10.938;2023-05-17T12:57:53;22.30;90.20
41256;DHT22;26989;45.524;10.938;2023-05-17T13:00:20;22.00;90.60
41256;DHT22;26989;45.524;10.938;2023-05-17T13:02:47;22.20;90.50
41256;DHT22;26989;45.524;10.938;2023-05-17T13:05:17;22.40;90.70
41256;DHT22;26989;45.524;10.938;2023-05-17T13:07:47;22.40;90.50
41256;DHT22;26989;45.524;10.938;2023-05-17T13:12:59;22.40;90.80
41256;DHT22;26989;45.524;10.938;2023-05-17T13:15:30;22.80;91.10
41256;DHT22;26989;45.524;10.938;2023-05-17T13:17:59;22.90;90.70
41256;DHT22;26989;45.524;10.938;2023-05-17T13:20:47;22.80;90.40
41256;DHT22;26989;45.524;10.938;2023-05-17T13:23:19;22.90;90.60
41256;DHT22;26989;45.524;10.938;2023-05-17T13:25:46;23.10;90.00
41256;DHT22;26989;45.524;10.938;2023-05-17T13:28:13;23.40;90.20
41256;DHT22;26989;45.524;10.938;2023-05-17T13:30:40;23.50;90.40
41256;DHT22;26989;45.524;10.938;2023-05-17T13:33:07;23.80;90.70
41256;DHT22;26989;45.524;10.938;2023-05-17T13:35:34;23.70;90.00
41256;DHT22;26989;45.524;10.938;2023-05-17T13:38:02;24.00;88.80
41256;DHT22;26989;45.524;10.938;2023-05-17T13:40:28;23.70;87.80
41256;DHT22;26989;45.524;10.938;2023-05-17T13:42:56;22.60;89.80
41256;DHT22;26989;45.524;10.938;2023-05-17T13:45:23;22.60;90.30
41256;DHT22;26989;45.524;10.938;2023-05-17T13:47:49;23.30;89.80
41256;DHT22;26989;45.524;10.938;2023-05-17T13:50:17;23.20;90.30
41256;DHT22;26989;45.524;10.938;2023-05-17T13:52:44;23.20;91.20
41256;DHT22;26989;45.524;10.938;2023-05-17T13:55:11;22.90;91.70
41256;DHT22;26989;45.524;10.938;2023-05-17T13:57:38;23.40;92.50
41256;DHT22;26989;45.524;10.938;2023-05-17T14:00:07;23.50;92.10
41256;DHT22;26989;45.524;10.938;2023-05-17T14:02:35;23.60;91.90
41256;DHT22;26989;45.524;10.938;2023-05-17T14:05:02;23.10;92.60
41256;DHT22;26989;45.524;10.938;2023-05-17T14:07:32;23.40;90.60
41256;DHT22;26989;45.524;10.938;2023-05-17T14:10:00;22.50;92.50
41256;DHT22;26989;45.524;10.938;2023-05-17T14:12:27;23.10;91.30
41256;DHT22;26989;45.524;10.938;2023-05-17T14:14:54;22.90;90.20
41256;DHT22;26989;45.524;10.938;2023-05-17T14:17:21;22.30;91.80
41256;DHT22;26989;45.524;10.938;2023-05-17T14:19:48;22.70;91.90
41256;DHT22;26989;45.524;10.938;2023-05-17T14:22:16;23.30;89.20
41256;DHT22;26989;45.524;10.938;2023-05-17T14:24:43;22.80;90.00
41256;DHT22;26989;45.524;10.938;2023-05-17T14:27:10;22.20;90.50
41256;DHT22;26989;45.524;10.938;2023-05-17T14:29:37;21.40;89.80
41256;DHT22;26989;45.524;10.938;2023-05-17T14:32:04;21.10;90.60
41256;DHT22;26989;45.524;10.938;2023-05-17T14:34:32;22.20;89.90
41256;DHT22;26989;45.524;10.938;2023-05-17T14:36:59;21.90;90.10
41256;DHT22;26989;45.524;10.938;2023-05-17T14:39:27;22.60;88.90
41256;DHT22;26989;45.524;10.938;2023-05-17T14:41:55;23.50;88.10
41256;DHT22;26989;45.524;10.938;2023-05-17T14:44:22;23.80;86.90
41256;DHT22;26989;45.524;10.938;2023-05-17T14:46:49;23.80;85.70
41256;DHT22;26989;45.524;10.938;2023-05-17T14:49:18;23.90;86.50
41256;DHT22;26989;45.524;10.938;2023-05-17T14:51:45;22.60;87.50
41256;DHT22;26989;45.524;10.938;2023-05-17T14:54:12;22.00;89.80
41256;DHT22;26989;45.524;10.938;2023-05-17T14:56:39;22.50;88.80
41256;DHT22;26989;45.524;10.938;2023-05-17T14:59:06;22.40;89.80
41256;DHT22;26989;45.524;10.938;2023-05-17T15:01:34;22.10;89.50
41256;DHT22;26989;45.524;10.938;2023-05-17T15:04:02;21.80;90.00
41256;DHT22;26989;45.524;10.938;2023-05-17T15:06:29;21.00;90.90
41256;DHT22;26989;45.524;10.938;2023-05-17T15:08:57;21.20;91.00
41256;DHT22;26989;45.524;10.938;2023-05-17T15:11:25;20.40;91.60
41256;DHT22;26989;45.524;10.938;2023-05-17T15:13:52;20.50;91.90
41256;DHT22;26989;45.524;10.938;2023-05-17T15:16:20;20.90;91.40
41256;DHT22;26989;45.524;10.938;2023-05-17T15:18:47;20.80;91.80
41256;DHT22;26989;45.524;10.938;2023-05-17T15:21:14;20.60;92.00
41256;DHT22;26989;45.524;10.938;2023-05-17T15:23:43;21.30;91.80
41256;DHT22;26989;45.524;10.938;2023-05-17T15:26:10;22.10;90.40
41256;DHT22;26989;45.524;10.938;2023-05-17T15:28:37;22.50;90.20
41256;DHT22;26989;45.524;10.938;2023-05-17T15:31:04;22.10;89.90
41256;DHT22;26989;45.524;10.938;2023-05-17T15:33:37;21.90;88.60
41256;DHT22;26989;45.524;10.938;2023-05-17T15:36:09;21.20;90.60
41256;DHT22;26989;45.524;10.938;2023-05-17T15:38:38;21.40;90.60
41256;DHT22;26989;45.524;10.938;2023-05-17T15:41:12;21.90;89.50
41256;DHT22;26989;45.524;10.938;2023-05-17T15:43:40;21.80;90.10
41256;DHT22;26989;45.524;10.938;2023-05-17T15:46:09;22.00;89.70
41256;DHT22;26989;45.524;10.938;2023-05-17T15:48:37;21.30;89.20